sensor_id;sensor_type;location;lat;lon;timestamp;pressure;altitude;pressure_sealevel;temperature;humidity
55373;BME280;41249;47.838;16.490;2023-02-22T00:01:11;99364.09;;;4.72;63.80
55373;BME280;41249;47.838;16.490;2023-02-22T00:03:50;99366.06;;;4.72;63.86
55373;BME280;41249;47.838;16.490;2023-02-22T00:06:20;99368.63;;;4.65;64.32
55373;BME280;41249;47.838;16.490;2023-02-22T00:08:47;99366.69;;;4.65;64.53
55373;BME280;41249;47.838;16.490;2023-02-22T00:11:17;99362.25;;;4.61;64.24
55373;BME280;41249;47.838;16.490;2023-02-22T00:13:46;99367.88;;;4.49;64.81
55373;BME280;41249;47.838;16.490;2023-02-22T00:16:20;99368.56;;;4.46;65.36
55373;BME280;41249;47.838;16.490;2023-02-22T00:18:48;99368.94;;;4.44;64.30
55373;BME280;41249;47.838;16.490;2023-02-22T00:21:15;99370.97;;;4.32;64.83
55373;BME280;41249;47.838;16.490;2023-02-22T00:23:44;99370.34;;;4.38;64.95
55373;BME280;41249;47.838;16.490;2023-02-22T00:26:19;99373.97;;;4.42;64.56
55373;BME280;41249;47.838;16.490;2023-02-22T00:28:48;99371.59;;;4.41;64.42
55373;BME280;41249;47.838;16.490;2023-02-22T00:31:15;99368.66;;;4.34;64.81
55373;BME280;41249;47.838;16.490;2023-02-22T00:33:42;99373.03;;;4.35;64.51
55373;BME280;41249;47.838;16.490;2023-02-22T00:36:11;99375.13;;;4.26;65.06
55373;BME280;41249;47.838;16.490;2023-02-22T00:38:39;99373.25;;;4.14;65.08
55373;BME280;41249;47.838;16.490;2023-02-22T00:41:06;99369.34;;;4.15;64.83
55373;BME280;41249;47.838;16.490;2023-02-22T00:43:33;99375.84;;;4.07;65.43
55373;BME280;41249;47.838;16.490;2023-02-22T00:46:00;99375.47;;;4.08;64.95
55373;BME280;41249;47.838;16.490;2023-02-22T00:48:27;99377.06;;;4.10;65.74
55373;BME280;41249;47.838;16.490;2023-02-22T00:50:54;99373.00;;;4.19;65.67
55373;BME280;41249;47.838;16.490;2023-02-22T00:53:22;99372.91;;;4.16;64.83
55373;BME280;41249;47.838;16.490;2023-02-22T00:55:49;99376.97;;;4.06;64.93
55373;BME280;41249;47.838;16.490;2023-02-22T00:58:16;99372.91;;;4.16;65.31
55373;BME280;41249;47.838;16.490;2023-02-22T01:00:44;99370.31;;;4.23;64.50
55373;BME280;41249;47.838;16.490;2023-02-22T01:03:13;99368.09;;;4.13;64.60
55373;BME280;41249;47.838;16.490;2023-02-22T01:05:41;99371.38;;;4.02;65.49
55373;BME280;41249;47.838;16.490;2023-02-22T01:08:09;99366.09;;;4.10;64.92
55373;BME280;41249;47.838;16.490;2023-02-22T01:10:37;99361.09;;;4.15;65.26
55373;BME280;41249;47.838;16.490;2023-02-22T01:13:06;99362.19;;;4.11;65.44
55373;BME280;41249;47.838;16.490;2023-02-22T01:15:36;99352.78;;;4.12;64.89
55373;BME280;41249;47.838;16.490;2023-02-22T01:18:04;99357.03;;;4.09;65.70
55373;BME280;41249;47.838;16.490;2023-02-22T01:20:31;99350.19;;;4.03;64.97
55373;BME280;41249;47.838;16.490;2023-02-22T01:23:00;99348.34;;;3.91;65.31
55373;BME280;41249;47.838;16.490;2023-02-22T01:25:30;99348.84;;;3.81;65.86
55373;BME280;41249;47.838;16.490;2023-02-22T01:27:58;99345.00;;;3.70;66.00
55373;BME280;41249;47.838;16.490;2023-02-22T01:30:29;99350.56;;;3.58;65.71
55373;BME280;41249;47.838;16.490;2023-02-22T01:32:56;99356.53;;;3.48;67.06
55373;BME280;41249;47.838;16.490;2023-02-22T01:35:27;99356.03;;;3.43;66.61
55373;BME280;41249;47.838;16.490;2023-02-22T01:37:55;99352.16;;;3.31;67.45
55373;BME280;41249;47.838;16.490;2023-02-22T01:40:29;99352.28;;;3.35;66.48
55373;BME280;41249;47.838;16.490;2023-02-22T01:42:58;99344.47;;;3.37;66.89
55373;BME280;41249;47.838;16.490;2023-02-22T01:47:57;99346.06;;;3.38;66.33
55373;BME280;41249;47.838;16.490;2023-02-22T01:50:26;99345.78;;;3.27;66.45
55373;BME280;41249;47.838;16.490;2023-02-22T01:52:53;99342.25;;;3.15;66.28
55373;BME280;41249;47.838;16.490;2023-02-22T01:55:20;99336.75;;;3.03;66.71
55373;BME280;41249;47.838;16.490;2023-02-22T01:57:47;99339.75;;;2.98;66.41
55373;BME280;41249;47.838;16.490;2023-02-22T02:00:17;99343.22;;;2.95;66.51
55373;BME280;41249;47.838;16.490;2023-02-22T02:02:56;99332.72;;;2.85;67.36
55373;BME280;41249;47.838;16.490;2023-02-22T02:05:26;99337.28;;;2.80;66.17
55373;BME280;41249;47.838;16.490;2023-02-22T02:07:53;99315.25;;;2.77;66.23
55373;BME280;41249;47.838;16.490;2023-02-22T02:10:20;99328.75;;;2.70;66.94
55373;BME280;41249;47.838;16.490;2023-02-22T02:12:48;99328.16;;;2.64;66.68
55373;BME280;41249;47.838;16.490;2023-02-22T02:17:42;99318.72;;;2.50;66.75
55373;BME280;41249;47.838;16.490;2023-02-22T02:26:13;99308.88;;;2.49;67.32
55373;BME280;41249;47.838;16.490;2023-02-22T02:34:48;99317.25;;;2.40;67.29
55373;BME280;41249;47.838;16.490;2023-02-22T02:37:29;99317.91;;;2.37;67.64
55373;BME280;41249;47.838;16.490;2023-02-22T02:42:42;99321.44;;;2.26;68.02
55373;BME280;41249;47.838;16.490;2023-02-22T02:45:18;99313.56;;;2.24;67.96
55373;BME280;41249;47.838;16.490;2023-02-22T02:47:52;99322.25;;;2.26;67.88
55373;BME280;41249;47.838;16.490;2023-02-22T02:50:32;99319.28;;;2.31;67.67
55373;BME280;41249;47.838;16.490;2023-02-22T02:53:04;99315.19;;;2.37;67.71
55373;BME280;41249;47.838;16.490;2023-02-22T02:55:32;99319.03;;;2.48;67.22
55373;BME280;41249;47.838;16.490;2023-02-22T02:58:04;99308.53;;;2.62;66.89
55373;BME280;41249;47.838;16.490;2023-02-22T03:00:36;99317.53;;;2.75;67.18
55373;BME280;41249;47.838;16.490;2023-02-22T03:06:09;99322.66;;;2.76;67.86
55373;BME280;41249;47.838;16.490;2023-02-22T03:08:47;99325.66;;;2.71;67.97
55373;BME280;41249;47.838;16.490;2023-02-22T03:11:21;99325.19;;;2.69;67.83
55373;BME280;41249;47.838;16.490;2023-02-22T03:19:36;99328.94;;;2.89;67.42
55373;BME280;41249;47.838;16.490;2023-02-22T03:22:22;99332.22;;;2.95;69.37
55373;BME280;41249;47.838;16.490;2023-02-22T03:24:55;99328.44;;;2.99;68.52
55373;BME280;41249;47.838;16.490;2023-02-22T03:27:38;99327.75;;;3.02;68.16
55373;BME280;41249;47.838;16.490;2023-02-22T03:30:36;99332.66;;;3.09;68.95
55373;BME280;41249;47.838;16.490;2023-02-22T03:33:09;99333.53;;;3.13;67.54
55373;BME280;41249;47.838;16.490;2023-02-22T03:35:42;99327.94;;;3.21;68.73
55373;BME280;41249;47.838;16.490;2023-02-22T03:38:12;99333.41;;;3.33;68.29
55373;BME280;41249;47.838;16.490;2023-02-22T03:40:43;99330.97;;;3.44;67.05
55373;BME280;41249;47.838;16.490;2023-02-22T03:43:17;99332.03;;;3.55;67.49
55373;BME280;41249;47.838;16.490;2023-02-22T03:45:47;99336.59;;;3.63;67.35
55373;BME280;41249;47.838;16.490;2023-02-22T03:48:22;99334.03;;;3.70;68.08
55373;BME280;41249;47.838;16.490;2023-02-22T03:50:51;99337.44;;;3.79;67.57
55373;BME280;41249;47.838;16.490;2023-02-22T03:53:19;99336.81;;;3.86;66.86
55373;BME280;41249;47.838;16.490;2023-02-22T03:55:49;99341.16;;;3.87;67.54
55373;BME280;41249;47.838;16.490;2023-02-22T03:58:21;99341.22;;;3.90;67.42
55373;BME280;41249;47.838;16.490;2023-02-22T04:00:49;99340.66;;;3.97;67.40
55373;BME280;41249;47.838;16.490;2023-02-22T04:03:19;99345.16;;;4.05;67.68
55373;BME280;41249;47.838;16.490;2023-02-22T04:05:46;99340.91;;;4.07;67.10
55373;BME280;41249;47.838;16.490;2023-02-22T04:08:13;99345.69;;;4.11;67.93
55373;BME280;41249;47.838;16.490;2023-02-22T04:10:40;99345.88;;;4.18;67.05
55373;BME280;41249;47.838;16.490;2023-02-22T04:13:07;99355.56;;;4.27;67.08
55373;BME280;41249;47.838;16.490;2023-02-22T04:15:34;99352.97;;;4.34;66.40
55373;BME280;41249;47.838;16.490;2023-02-22T04:18:01;99349.97;;;4.39;67.07
55373;BME280;41249;47.838;16.490;2023-02-22T04:20:27;99352.94;;;4.50;66.94
55373;BME280;41249;47.838;16.490;2023-02-22T04:22:54;99356.06;;;4.48;66.74
55373;BME280;41249;47.838;16.490;2023-02-22T04:25:23;99351.03;;;4.35;67.60
55373;BME280;41249;47.838;16.490;2023-02-22T04:27:50;99356.41;;;4.16;67.26
55373;BME280;41249;47.838;16.490;2023-02-22T04:30:17;99360.56;;;3.94;68.33
55373;BME280;41249;47.838;16.490;2023-02-22T04:32:44;99359.31;;;3.91;67.63
55373;BME280;41249;47.838;16.490;2023-02-22T04:35:11;99348.41;;;3.95;68.04
55373;BME280;41249;47.838;16.490;2023-02-22T04:37:38;99345.50;;;4.03;67.30
55373;BME280;41249;47.838;16.490;2023-02-22T04:40:05;99356.69;;;4.11;67.58
55373;BME280;41249;47.838;16.490;2023-02-22T04:42:34;99354.28;;;4.09;66.77
55373;BME280;41249;47.838;16.490;2023-02-22T04:45:02;99353.50;;;4.08;67.05
55373;BME280;41249;47.838;16.490;2023-02-22T04:47:28;99344.44;;;4.08;66.84
55373;BME280;41249;47.838;16.490;2023-02-22T04:49:55;99344.13;;;4.10;67.06
55373;BME280;41249;47.838;16.490;2023-02-22T04:52:22;99349.59;;;4.10;67.25
55373;BME280;41249;47.838;16.490;2023-02-22T04:54:48;99350.03;;;4.12;67.57
55373;BME280;41249;47.838;16.490;2023-02-22T04:57:16;99345.25;;;4.08;67.38
55373;BME280;41249;47.838;16.490;2023-02-22T04:59:42;99346.50;;;4.11;67.25
55373;BME280;41249;47.838;16.490;2023-02-22T05:02:09;99344.19;;;4.13;66.81
55373;BME280;41249;47.838;16.490;2023-02-22T05:04:37;99345.00;;;4.14;66.14
55373;BME280;41249;47.838;16.490;2023-02-22T05:07:03;99347.75;;;4.14;66.24
55373;BME280;41249;47.838;16.490;2023-02-22T05:09:30;99343.38;;;4.13;66.54
55373;BME280;41249;47.838;16.490;2023-02-22T05:11:57;99346.59;;;4.15;66.35
55373;BME280;41249;47.838;16.490;2023-02-22T05:14:23;99344.28;;;4.17;66.67
55373;BME280;41249;47.838;16.490;2023-02-22T05:16:58;99348.63;;;4.18;65.98
55373;BME280;41249;47.838;16.490;2023-02-22T05:19:25;99341.63;;;4.20;66.11
55373;BME280;41249;47.838;16.490;2023-02-22T05:21:52;99347.09;;;4.20;66.59
55373;BME280;41249;47.838;16.490;2023-02-22T05:24:18;99341.72;;;4.24;66.58
55373;BME280;41249;47.838;16.490;2023-02-22T05:26:45;99339.84;;;4.28;65.76
55373;BME280;41249;47.838;16.490;2023-02-22T05:29:12;99341.72;;;4.24;66.85
55373;BME280;41249;47.838;16.490;2023-02-22T05:31:39;99338.63;;;4.10;66.61
55373;BME280;41249;47.838;16.490;2023-02-22T05:34:07;99343.22;;;4.05;66.78
55373;BME280;41249;47.838;16.490;2023-02-22T05:36:34;99346.38;;;4.07;67.73
55373;BME280;41249;47.838;16.490;2023-02-22T05:39:00;99345.34;;;4.12;67.10
55373;BME280;41249;47.838;16.490;2023-02-22T05:41:27;99344.34;;;4.20;66.94
55373;BME280;41249;47.838;16.490;2023-02-22T05:43:54;99345.00;;;4.29;66.97
55373;BME280;41249;47.838;16.490;2023-02-22T05:46:20;99342.06;;;4.38;67.37
55373;BME280;41249;47.838;16.490;2023-02-22T05:48:47;99350.56;;;4.48;67.27
55373;BME280;41249;47.838;16.490;2023-02-22T05:51:13;99349.22;;;4.58;66.42
55373;BME280;41249;47.838;16.490;2023-02-22T05:53:41;99347.81;;;4.64;66.49
55373;BME280;41249;47.838;16.490;2023-02-22T05:56:08;99350.28;;;4.69;66.57
55373;BME280;41249;47.838;16.490;2023-02-22T05:58:34;99351.97;;;4.73;65.91
55373;BME280;41249;47.838;16.490;2023-02-22T06:01:01;99351.88;;;4.70;66.54
55373;BME280;41249;47.838;16.490;2023-02-22T06:03:28;99359.25;;;4.66;66.26
55373;BME280;41249;47.838;16.490;2023-02-22T06:05:55;99356.75;;;4.61;66.11
55373;BME280;41249;47.838;16.490;2023-02-22T06:08:23;99360.50;;;4.53;65.74
55373;BME280;41249;47.838;16.490;2023-02-22T06:10:49;99357.56;;;4.46;65.83
55373;BME280;41249;47.838;16.490;2023-02-22T06:13:16;99364.16;;;4.41;66.19
55373;BME280;41249;47.838;16.490;2023-02-22T06:15:43;99372.13;;;4.31;66.03
55373;BME280;41249;47.838;16.490;2023-02-22T06:18:09;99378.13;;;4.21;65.68
55373;BME280;41249;47.838;16.490;2023-02-22T06:20:36;99374.06;;;4.15;66.13
55373;BME280;41249;47.838;16.490;2023-02-22T06:23:02;99373.25;;;4.14;65.88
55373;BME280;41249;47.838;16.490;2023-02-22T06:25:30;99373.25;;;4.14;65.91
55373;BME280;41249;47.838;16.490;2023-02-22T06:28:00;99381.59;;;4.18;65.69
55373;BME280;41249;47.838;16.490;2023-02-22T06:30:27;99372.56;;;4.17;65.08
55373;BME280;41249;47.838;16.490;2023-02-22T06:32:54;99384.00;;;4.19;65.29
55373;BME280;41249;47.838;16.490;2023-02-22T06:35:21;99380.44;;;4.19;64.90
55373;BME280;41249;47.838;16.490;2023-02-22T06:37:47;99383.72;;;4.24;65.05
55373;BME280;41249;47.838;16.490;2023-02-22T06:40:15;99390.91;;;4.29;64.92
55373;BME280;41249;47.838;16.490;2023-02-22T06:42:41;99396.25;;;4.37;64.96
55373;BME280;41249;47.838;16.490;2023-02-22T06:45:08;99395.69;;;4.47;64.31
55373;BME280;41249;47.838;16.490;2023-02-22T06:47:39;99395.09;;;4.54;64.50
55373;BME280;41249;47.838;16.490;2023-02-22T06:50:16;99403.50;;;4.61;64.87
55373;BME280;41249;47.838;16.490;2023-02-22T06:52:43;99393.47;;;4.68;64.27
55373;BME280;41249;47.838;16.490;2023-02-22T06:55:10;99401.09;;;4.75;64.34
55373;BME280;41249;47.838;16.490;2023-02-22T06:57:36;99396.22;;;4.84;64.53
55373;BME280;41249;47.838;16.490;2023-02-22T07:00:03;99396.44;;;4.95;63.92
55373;BME280;41249;47.838;16.490;2023-02-22T07:02:30;99387.22;;;5.03;63.68
55373;BME280;41249;47.838;16.490;2023-02-22T07:04:57;99389.78;;;5.11;63.52
55373;BME280;41249;47.838;16.490;2023-02-22T07:07:23;99391.56;;;5.19;63.23
55373;BME280;41249;47.838;16.490;2023-02-22T07:09:50;99397.28;;;5.30;63.45
55373;BME280;41249;47.838;16.490;2023-02-22T07:12:17;99399.84;;;5.39;62.99
55373;BME280;41249;47.838;16.490;2023-02-22T07:14:43;99392.88;;;5.45;63.07
55373;BME280;41249;47.838;16.490;2023-02-22T07:17:10;99394.75;;;5.60;63.00
55373;BME280;41249;47.838;16.490;2023-02-22T07:19:37;99395.94;;;5.78;62.55
55373;BME280;41249;47.838;16.490;2023-02-22T07:22:04;99399.75;;;5.92;62.33
55373;BME280;41249;47.838;16.490;2023-02-22T07:24:31;99388.13;;;6.02;62.47
55373;BME280;41249;47.838;16.490;2023-02-22T07:27:00;99397.22;;;6.03;62.31
55373;BME280;41249;47.838;16.490;2023-02-22T07:29:27;99387.03;;;6.07;62.23
55373;BME280;41249;47.838;16.490;2023-02-22T07:31:54;99381.69;;;6.14;62.59
55373;BME280;41249;47.838;16.490;2023-02-22T07:34:23;99391.03;;;6.10;62.21
55373;BME280;41249;47.838;16.490;2023-02-22T07:36:49;99394.75;;;5.98;62.51
55373;BME280;41249;47.838;16.490;2023-02-22T07:39:16;99397.28;;;6.07;62.54
55373;BME280;41249;47.838;16.490;2023-02-22T07:41:42;99395.16;;;6.19;62.44
55373;BME280;41249;47.838;16.490;2023-02-22T07:44:09;99395.31;;;6.30;61.47
55373;BME280;41249;47.838;16.490;2023-02-22T07:46:36;99401.72;;;6.34;61.46
55373;BME280;41249;47.838;16.490;2023-02-22T07:49:03;99398.16;;;6.33;61.28
55373;BME280;41249;47.838;16.490;2023-02-22T07:51:29;99397.06;;;6.38;61.29
55373;BME280;41249;47.838;16.490;2023-02-22T07:53:56;99399.13;;;6.44;61.34
55373;BME280;41249;47.838;16.490;2023-02-22T07:56:22;99402.66;;;6.41;60.95
55373;BME280;41249;47.838;16.490;2023-02-22T07:58:49;99404.28;;;6.46;60.50
55373;BME280;41249;47.838;16.490;2023-02-22T08:01:16;99393.91;;;6.39;61.05
55373;BME280;41249;47.838;16.490;2023-02-22T08:03:43;99388.41;;;6.39;61.01
55373;BME280;41249;47.838;16.490;2023-02-22T08:06:12;99388.34;;;6.36;61.63
55373;BME280;41249;47.838;16.490;2023-02-22T08:08:39;99391.16;;;6.39;61.27
55373;BME280;41249;47.838;16.490;2023-02-22T08:11:05;99394.09;;;6.50;61.63
55373;BME280;41249;47.838;16.490;2023-02-22T08:13:33;99392.84;;;6.67;61.30
55373;BME280;41249;47.838;16.490;2023-02-22T08:16:00;99389.13;;;6.82;60.55
55373;BME280;41249;47.838;16.490;2023-02-22T08:18:26;99384.22;;;6.94;60.26
55373;BME280;41249;47.838;16.490;2023-02-22T08:20:53;99383.25;;;7.09;60.26
55373;BME280;41249;47.838;16.490;2023-02-22T08:23:22;99375.63;;;7.29;59.63
55373;BME280;41249;47.838;16.490;2023-02-22T08:25:50;99384.03;;;7.36;59.82
55373;BME280;41249;47.838;16.490;2023-02-22T08:28:19;99377.31;;;7.37;59.00
55373;BME280;41249;47.838;16.490;2023-02-22T08:30:48;99370.66;;;7.38;60.19
55373;BME280;41249;47.838;16.490;2023-02-22T08:33:15;99377.00;;;7.42;59.57
55373;BME280;41249;47.838;16.490;2023-02-22T08:35:46;99379.75;;;7.42;59.22
55373;BME280;41249;47.838;16.490;2023-02-22T08:38:26;99370.47;;;7.54;58.95
55373;BME280;41249;47.838;16.490;2023-02-22T08:40:54;99369.75;;;7.60;58.98
55373;BME280;41249;47.838;16.490;2023-02-22T08:43:21;99375.66;;;7.59;59.61
55373;BME280;41249;47.838;16.490;2023-02-22T08:45:49;99382.66;;;7.53;59.54
55373;BME280;41249;47.838;16.490;2023-02-22T08:48:17;99383.06;;;7.51;60.23
55373;BME280;41249;47.838;16.490;2023-02-22T08:50:44;99377.56;;;7.55;60.13
55373;BME280;41249;47.838;16.490;2023-02-22T08:53:13;99381.34;;;7.73;59.31
55373;BME280;41249;47.838;16.490;2023-02-22T08:55:40;99379.94;;;7.89;59.27
55373;BME280;41249;47.838;16.490;2023-02-22T08:58:08;99384.91;;;8.07;58.75
55373;BME280;41249;47.838;16.490;2023-02-22T09:00:36;99384.53;;;8.08;58.82
55373;BME280;41249;47.838;16.490;2023-02-22T09:03:07;99386.00;;;7.99;59.02
55373;BME280;41249;47.838;16.490;2023-02-22T09:05:34;99382.88;;;8.04;58.51
55373;BME280;41249;47.838;16.490;2023-02-22T09:08:02;99384.28;;;8.24;58.82
55373;BME280;41249;47.838;16.490;2023-02-22T09:10:30;99386.31;;;8.27;58.64
55373;BME280;41249;47.838;16.490;2023-02-22T09:12:58;99385.66;;;8.40;58.15
55373;BME280;41249;47.838;16.490;2023-02-22T09:15:26;99382.31;;;8.65;57.35
55373;BME280;41249;47.838;16.490;2023-02-22T09:17:54;99374.91;;;8.79;56.85
55373;BME280;41249;47.838;16.490;2023-02-22T09:20:22;99371.09;;;9.01;56.36
55373;BME280;41249;47.838;16.490;2023-02-22T09:22:49;99374.38;;;9.17;55.79
55373;BME280;41249;47.838;16.490;2023-02-22T09:25:16;99372.03;;;9.23;55.71
55373;BME280;41249;47.838;16.490;2023-02-22T09:27:46;99368.22;;;9.42;55.64
55373;BME280;41249;47.838;16.490;2023-02-22T09:30:33;99368.59;;;9.40;54.13
55373;BME280;41249;47.838;16.490;2023-02-22T09:33:03;99369.03;;;9.46;54.62
55373;BME280;41249;47.838;16.490;2023-02-22T09:35:31;99366.88;;;10.01;53.61
55373;BME280;41249;47.838;16.490;2023-02-22T09:38:03;99361.78;;;10.48;53.14
55373;BME280;41249;47.838;16.490;2023-02-22T09:40:39;99366.97;;;10.75;51.99
55373;BME280;41249;47.838;16.490;2023-02-22T09:43:36;99359.38;;;11.10;50.69
55373;BME280;41249;47.838;16.490;2023-02-22T09:46:11;99366.13;;;11.17;47.54
55373;BME280;41249;47.838;16.490;2023-02-22T09:51:32;99359.00;;;10.91;51.73
55373;BME280;41249;47.838;16.490;2023-02-22T09:54:03;99354.16;;;11.34;51.19
55373;BME280;41249;47.838;16.490;2023-02-22T09:56:30;99350.94;;;11.49;50.74
55373;BME280;41249;47.838;16.490;2023-02-22T09:59:01;99346.97;;;11.43;49.93
55373;BME280;41249;47.838;16.490;2023-02-22T10:01:33;99348.91;;;11.64;49.02
55373;BME280;41249;47.838;16.490;2023-02-22T10:06:38;99347.47;;;11.06;49.94
55373;BME280;41249;47.838;16.490;2023-02-22T10:09:08;99337.59;;;10.84;49.17
55373;BME280;41249;47.838;16.490;2023-02-22T10:16:43;99332.28;;;11.50;48.25
55373;BME280;41249;47.838;16.490;2023-02-22T10:19:32;99326.59;;;11.78;46.74
55373;BME280;41249;47.838;16.490;2023-02-22T10:25:02;99324.78;;;11.26;47.68
55373;BME280;41249;47.838;16.490;2023-02-22T10:27:38;99320.41;;;11.35;47.26
55373;BME280;41249;47.838;16.490;2023-02-22T10:30:15;99315.59;;;11.57;47.36
55373;BME280;41249;47.838;16.490;2023-02-22T10:33:03;99309.16;;;11.74;47.02
55373;BME280;41249;47.838;16.490;2023-02-22T10:35:36;99310.41;;;11.55;47.39
55373;BME280;41249;47.838;16.490;2023-02-22T10:38:31;99313.63;;;11.43;47.56
55373;BME280;41249;47.838;16.490;2023-02-22T10:43:37;99308.31;;;11.81;46.14
55373;BME280;41249;47.838;16.490;2023-02-22T10:46:08;99315.59;;;11.57;45.89
55373;BME280;41249;47.838;16.490;2023-02-22T10:48:39;99302.63;;;11.15;46.19
55373;BME280;41249;47.838;16.490;2023-02-22T10:51:08;99306.16;;;11.26;46.48
55373;BME280;41249;47.838;16.490;2023-02-22T10:53:36;99304.97;;;11.13;45.92
55373;BME280;41249;47.838;16.490;2023-02-22T10:56:16;99300.25;;;11.03;45.88
55373;BME280;41249;47.838;16.490;2023-02-22T10:59:02;99298.22;;;11.21;46.04
55373;BME280;41249;47.838;16.490;2023-02-22T11:04:02;99293.50;;;11.11;46.31
55373;BME280;41249;47.838;16.490;2023-02-22T11:06:32;99288.44;;;10.57;46.65
55373;BME280;41249;47.838;16.490;2023-02-22T11:09:15;99287.19;;;11.00;46.13
55373;BME280;41249;47.838;16.490;2023-02-22T11:11:45;99272.78;;;11.30;45.96
55373;BME280;41249;47.838;16.490;2023-02-22T11:14:28;99278.31;;;11.33;45.98
55373;BME280;41249;47.838;16.490;2023-02-22T11:16:57;99269.13;;;11.47;45.56
55373;BME280;41249;47.838;16.490;2023-02-22T11:19:26;99270.84;;;11.16;46.14
55373;BME280;41249;47.838;16.490;2023-02-22T11:21:59;99264.59;;;10.87;46.14
55373;BME280;41249;47.838;16.490;2023-02-22T11:24:46;99252.66;;;10.94;46.27
55373;BME280;41249;47.838;16.490;2023-02-22T11:27:30;99264.50;;;11.19;46.35
55373;BME280;41249;47.838;16.490;2023-02-22T11:30:10;99258.09;;;11.26;45.48
55373;BME280;41249;47.838;16.490;2023-02-22T11:32:43;99255.34;;;11.19;45.97
55373;BME280;41249;47.838;16.490;2023-02-22T11:35:29;99252.41;;;11.50;45.64
55373;BME280;41249;47.838;16.490;2023-02-22T11:38:11;99249.44;;;11.09;45.58
55373;BME280;41249;47.838;16.490;2023-02-22T11:40:44;99239.19;;;10.89;45.87
55373;BME280;41249;47.838;16.490;2023-02-22T11:43:20;99233.56;;;11.03;45.76
55373;BME280;41249;47.838;16.490;2023-02-22T11:45:57;99231.22;;;11.01;43.66
55373;BME280;41249;47.838;16.490;2023-02-22T11:48:31;99234.47;;;10.72;45.79
55373;BME280;41249;47.838;16.490;2023-02-22T11:51:08;99226.81;;;11.11;45.20
55373;BME280;41249;47.838;16.490;2023-02-22T11:53:57;99233.78;;;11.54;45.48
55373;BME280;41249;47.838;16.490;2023-02-22T11:56:33;99235.59;;;11.82;44.90
55373;BME280;41249;47.838;16.490;2023-02-22T12:01:48;99224.78;;;11.22;44.68
55373;BME280;41249;47.838;16.490;2023-02-22T12:04:27;99221.22;;;11.22;45.16
55373;BME280;41249;47.838;16.490;2023-02-22T12:10:23;99223.16;;;11.28;45.11
55373;BME280;41249;47.838;16.490;2023-02-22T12:18:31;99210.19;;;11.00;44.79
55373;BME280;41249;47.838;16.490;2023-02-22T12:21:06;99206.69;;;10.82;44.65
55373;BME280;41249;47.838;16.490;2023-02-22T12:23:42;99202.72;;;10.80;44.95
55373;BME280;41249;47.838;16.490;2023-02-22T12:26:23;99202.41;;;10.57;45.25
55373;BME280;41249;47.838;16.490;2023-02-22T12:28:56;99196.09;;;10.45;45.67
55373;BME280;41249;47.838;16.490;2023-02-22T12:31:31;99191.72;;;10.20;45.98
55373;BME280;41249;47.838;16.490;2023-02-22T12:34:14;99193.72;;;10.23;46.10
55373;BME280;41249;47.838;16.490;2023-02-22T12:36:49;99183.78;;;10.32;46.11
55373;BME280;41249;47.838;16.490;2023-02-22T12:39:26;99188.53;;;10.35;46.12
55373;BME280;41249;47.838;16.490;2023-02-22T12:42:11;99185.38;;;10.09;45.95
55373;BME280;41249;47.838;16.490;2023-02-22T12:44:41;99184.22;;;9.78;46.75
55373;BME280;41249;47.838;16.490;2023-02-22T12:47:18;99176.66;;;9.61;47.56
55373;BME280;41249;47.838;16.490;2023-02-22T12:49:52;99175.09;;;9.60;47.55
55373;BME280;41249;47.838;16.490;2023-02-22T12:53:03;99179.06;;;9.87;46.98
55373;BME280;41249;47.838;16.490;2023-02-22T12:56:15;99169.94;;;9.72;46.73
55373;BME280;41249;47.838;16.490;2023-02-22T13:01:52;99164.00;;;9.74;46.65
55373;BME280;41249;47.838;16.490;2023-02-22T13:04:20;99162.41;;;9.76;46.90
55373;BME280;41249;47.838;16.490;2023-02-22T13:20:47;99152.13;;;10.05;47.14
55373;BME280;41249;47.838;16.490;2023-02-22T13:23:24;99141.00;;;10.19;46.70
55373;BME280;41249;47.838;16.490;2023-02-22T13:26:08;99147.34;;;10.20;46.87
55373;BME280;41249;47.838;16.490;2023-02-22T13:29:00;99152.84;;;10.34;46.76
55373;BME280;41249;47.838;16.490;2023-02-22T13:37:25;99145.78;;;9.76;47.59
55373;BME280;41249;47.838;16.490;2023-02-22T13:42:51;99141.00;;;9.56;47.51
55373;BME280;41249;47.838;16.490;2023-02-22T13:48:21;99136.69;;;9.55;47.77
55373;BME280;41249;47.838;16.490;2023-02-22T13:51:13;99137.09;;;9.53;47.74
55373;BME280;41249;47.838;16.490;2023-02-22T13:53:51;99131.94;;;9.55;48.08
55373;BME280;41249;47.838;16.490;2023-02-22T13:56:23;99137.06;;;9.36;48.24
55373;BME280;41249;47.838;16.490;2023-02-22T13:58:57;99142.19;;;9.34;48.64
55373;BME280;41249;47.838;16.490;2023-02-22T14:01:42;99131.44;;;9.14;48.70
55373;BME280;41249;47.838;16.490;2023-02-22T14:04:19;99131.78;;;8.99;49.79
55373;BME280;41249;47.838;16.490;2023-02-22T14:06:46;99125.88;;;9.07;49.23
55373;BME280;41249;47.838;16.490;2023-02-22T14:12:03;99123.47;;;8.99;49.82
55373;BME280;41249;47.838;16.490;2023-02-22T14:14:29;99122.63;;;8.84;49.40
55373;BME280;41249;47.838;16.490;2023-02-22T14:17:25;99118.69;;;8.85;49.73
55373;BME280;41249;47.838;16.490;2023-02-22T14:22:41;99121.03;;;8.76;50.10
55373;BME280;41249;47.838;16.490;2023-02-22T14:27:54;99116.66;;;8.65;50.27
55373;BME280;41249;47.838;16.490;2023-02-22T14:30:28;99120.59;;;8.67;50.29
55373;BME280;41249;47.838;16.490;2023-02-22T14:32:56;99110.69;;;8.59;50.17
55373;BME280;41249;47.838;16.490;2023-02-22T14:35:23;99108.28;;;8.50;50.84
55373;BME280;41249;47.838;16.490;2023-02-22T14:37:59;99111.41;;;8.42;51.12
55373;BME280;41249;47.838;16.490;2023-02-22T14:40:32;99108.09;;;8.19;51.52
55373;BME280;41249;47.838;16.490;2023-02-22T14:43:09;99109.22;;;8.07;51.27
55373;BME280;41249;47.838;16.490;2023-02-22T14:45:44;99115.50;;;8.01;51.58
55373;BME280;41249;47.838;16.490;2023-02-22T14:48:35;99111.50;;;7.94;51.61
55373;BME280;41249;47.838;16.490;2023-02-22T14:51:22;99104.75;;;7.88;51.80
55373;BME280;41249;47.838;16.490;2023-02-22T14:54:19;99100.00;;;7.85;52.21